createdAt,value
2022-12-04T00:00:01.627Z,18.70
2022-12-04T00:01:01.599Z,18.70
2022-12-04T00:02:01.620Z,18.70
2022-12-04T00:03:01.616Z,18.40
2022-12-04T00:04:01.585Z,18.20
2022-12-04T00:05:01.614Z,18.40
2022-12-04T00:06:01.586Z,18.10
2022-12-04T00:07:01.581Z,17.50
2022-12-04T00:08:01.629Z,17.40
2022-12-04T00:09:01.544Z,17.80
2022-12-04T00:10:01.529Z,16.40
2022-12-04T00:11:01.522Z,16.30
2022-12-04T00:12:01.546Z,16.40
2022-12-04T00:13:01.541Z,15.50
2022-12-04T00:14:06.500Z,15.30
2022-12-04T00:16:02.516Z,15.40
2022-12-04T00:17:01.469Z,15.60
2022-12-04T00:18:01.490Z,15.20
2022-12-04T00:19:01.505Z,14.50
2022-12-04T00:20:01.474Z,14.00
2022-12-04T00:21:01.463Z,15.00
2022-12-04T00:22:01.465Z,13.70
2022-12-04T00:23:01.431Z,14.20
2022-12-04T00:24:01.444Z,14.90
2022-12-04T00:25:01.429Z,14.10
2022-12-04T00:26:01.450Z,14.30
2022-12-04T00:27:01.412Z,13.50
2022-12-04T00:28:01.412Z,14.60
2022-12-04T00:29:01.407Z,14.40
2022-12-04T00:30:01.391Z,14.20
2022-12-04T00:31:01.407Z,13.80
2022-12-04T00:32:01.533Z,14.70
2022-12-04T00:33:01.374Z,14.10
2022-12-04T00:34:02.096Z,13.70
2022-12-04T00:35:01.375Z,14.50
2022-12-04T00:36:01.370Z,14.70
2022-12-04T00:37:01.372Z,15.00
2022-12-04T00:38:01.347Z,15.10
2022-12-04T00:39:01.340Z,14.60
2022-12-04T00:40:01.351Z,14.20
2022-12-04T00:41:01.351Z,14.70
2022-12-04T00:42:01.352Z,14.50
2022-12-04T00:43:01.341Z,15.10
2022-12-04T00:44:01.313Z,13.20
2022-12-04T00:45:01.326Z,14.00
2022-12-04T00:46:01.372Z,14.20
2022-12-04T00:47:01.318Z,13.70
2022-12-04T00:48:01.292Z,14.10
2022-12-04T00:49:01.292Z,14.10
2022-12-04T00:50:01.290Z,14.30
2022-12-04T00:51:01.269Z,14.80
2022-12-04T00:52:01.269Z,14.00
2022-12-04T00:53:01.248Z,14.70
2022-12-04T00:54:01.253Z,14.60
2022-12-04T00:55:01.241Z,14.40
2022-12-04T00:56:01.246Z,14.10
2022-12-04T00:57:01.233Z,13.90
2022-12-04T00:58:01.257Z,14.00
2022-12-04T00:59:01.230Z,15.00
2022-12-04T01:00:01.210Z,15.10
2022-12-04T01:01:01.230Z,15.00
2022-12-04T01:02:01.180Z,15.50
2022-12-04T01:03:01.232Z,15.40
2022-12-04T01:04:01.212Z,14.80
2022-12-04T01:05:01.158Z,14.80
2022-12-04T01:06:01.195Z,14.50
2022-12-04T01:07:05.013Z,14.40
2022-12-04T01:08:08.231Z,15.20
2022-12-04T01:09:01.260Z,15.80
2022-12-04T01:10:01.154Z,16.00
2022-12-04T01:11:01.191Z,15.30
2022-12-04T01:12:01.125Z,15.40
2022-12-04T01:13:01.124Z,16.00
2022-12-04T01:14:01.115Z,15.40
2022-12-04T01:15:01.284Z,15.10
2022-12-04T01:16:01.246Z,15.70
2022-12-04T01:17:01.309Z,15.70
2022-12-04T01:18:01.080Z,15.50
2022-12-04T01:19:01.328Z,15.60
2022-12-04T01:20:01.098Z,15.30
2022-12-04T01:21:01.090Z,15.80
2022-12-04T01:22:01.300Z,15.50
2022-12-04T01:23:01.106Z,15.20
2022-12-04T01:24:01.064Z,15.70
2022-12-04T01:25:01.036Z,16.50
2022-12-04T01:26:01.260Z,14.90
2022-12-04T01:27:01.034Z,15.80
2022-12-04T01:28:01.083Z,16.60
2022-12-04T01:29:01.111Z,16.00
2022-12-04T01:30:01.144Z,16.90
2022-12-04T01:31:00.984Z,16.70
2022-12-04T01:32:01.156Z,16.00
2022-12-04T01:33:01.065Z,17.10
2022-12-04T01:34:00.997Z,16.10
2022-12-04T01:35:01.910Z,16.10
2022-12-04T01:36:00.974Z,16.10
2022-12-04T01:37:02.122Z,16.10
2022-12-04T01:38:02.076Z,16.40
2022-12-04T01:39:01.095Z,15.80
2022-12-04T01:40:00.931Z,16.80
2022-12-04T01:41:02.944Z,17.00
2022-12-04T01:42:01.172Z,15.70
2022-12-04T01:43:01.990Z,17.00
2022-12-04T01:44:00.935Z,17.30
2022-12-04T01:45:01.051Z,16.90
2022-12-04T01:46:03.387Z,17.00
2022-12-04T01:47:01.265Z,16.80
2022-12-04T01:48:01.196Z,16.90
2022-12-04T01:49:02.359Z,16.70
2022-12-04T01:50:00.859Z,16.90
2022-12-04T01:51:00.881Z,17.30
2022-12-04T01:52:00.846Z,17.50
2022-12-04T01:53:00.859Z,17.90
2022-12-04T01:54:00.850Z,17.10
2022-12-04T01:55:01.752Z,17.60
2022-12-04T01:56:01.210Z,17.70
2022-12-04T01:57:00.969Z,17.50
2022-12-04T01:58:00.823Z,17.00
2022-12-04T01:59:00.816Z,16.90
2022-12-04T02:00:00.845Z,17.10
2022-12-04T02:01:06.521Z,17.50
2022-12-04T02:02:01.087Z,17.00
2022-12-04T02:03:00.827Z,17.10
2022-12-04T02:04:00.788Z,17.30
2022-12-04T02:05:00.789Z,17.10
2022-12-04T02:06:00.762Z,17.00
2022-12-04T02:07:00.751Z,18.20
2022-12-04T02:08:00.812Z,18.50
2022-12-04T02:09:00.799Z,17.50
2022-12-04T02:10:00.993Z,16.70
2022-12-04T02:11:01.644Z,17.50
2022-12-04T02:12:01.108Z,17.60
2022-12-04T02:13:01.339Z,17.90
2022-12-04T02:14:01.234Z,18.00
2022-12-04T02:15:00.691Z,17.40
2022-12-04T02:16:00.700Z,17.60
2022-12-04T02:17:00.962Z,17.70
2022-12-04T02:18:01.648Z,17.90
2022-12-04T02:19:00.662Z,19.10
2022-12-04T02:20:01.110Z,17.70
2022-12-04T02:21:01.128Z,19.00
2022-12-04T02:22:00.653Z,17.80
2022-12-04T02:23:01.257Z,19.10
2022-12-04T02:24:00.620Z,19.10
2022-12-04T02:25:01.762Z,18.90
2022-12-04T02:26:02.049Z,18.60
2022-12-04T02:27:01.899Z,18.80
2022-12-04T02:28:02.151Z,17.90
2022-12-04T02:29:00.751Z,19.00
2022-12-04T02:30:00.581Z,18.80
2022-12-04T02:31:01.260Z,18.50
2022-12-04T02:32:01.072Z,19.00
2022-12-04T02:33:01.918Z,18.50
2022-12-04T02:34:01.131Z,19.30
2022-12-04T02:35:01.371Z,19.30
2022-12-04T02:36:00.593Z,19.60
2022-12-04T02:37:00.882Z,19.20
2022-12-04T02:38:00.549Z,19.20
2022-12-04T02:39:00.547Z,20.40
2022-12-04T02:40:01.174Z,20.10
2022-12-04T02:41:00.506Z,19.30
2022-12-04T02:42:00.945Z,20.10
2022-12-04T02:43:00.637Z,19.20
2022-12-04T02:44:00.734Z,20.70
2022-12-04T02:45:00.475Z,19.50
2022-12-04T02:46:01.196Z,19.40
2022-12-04T02:47:00.481Z,19.80
2022-12-04T02:48:00.477Z,20.30
2022-12-04T02:49:00.458Z,19.30
2022-12-04T02:50:00.922Z,20.60
2022-12-04T02:51:00.585Z,20.30
2022-12-04T02:52:00.430Z,20.50
2022-12-04T02:53:00.641Z,20.30
2022-12-04T02:54:00.434Z,19.70
2022-12-04T02:55:05.298Z,20.30
2022-12-04T02:56:01.165Z,21.50
2022-12-04T02:57:00.392Z,21.20
2022-12-04T02:58:00.825Z,19.40
2022-12-04T02:59:00.384Z,19.70
2022-12-04T03:00:00.379Z,19.40
2022-12-04T03:01:00.661Z,21.10
2022-12-04T03:02:00.458Z,21.00
2022-12-04T03:03:00.402Z,20.30
2022-12-04T03:04:00.353Z,20.50
2022-12-04T03:05:00.344Z,19.60
2022-12-04T03:06:00.479Z,20.40
2022-12-04T03:07:00.700Z,20.10
2022-12-04T03:08:00.397Z,20.50
2022-12-04T03:09:00.319Z,20.30
2022-12-04T03:10:00.333Z,20.90
2022-12-04T03:11:00.396Z,20.90
2022-12-04T03:12:00.310Z,21.00
2022-12-04T03:13:00.398Z,20.80
2022-12-04T03:14:00.293Z,21.20
2022-12-04T03:15:00.291Z,21.50
2022-12-04T03:16:00.348Z,21.30
2022-12-04T03:17:00.608Z,22.20
2022-12-04T03:18:01.181Z,21.80
2022-12-04T03:19:00.293Z,20.50
2022-12-04T03:20:00.946Z,21.50
2022-12-04T03:21:00.843Z,21.20
2022-12-04T03:22:00.228Z,21.10
2022-12-04T03:23:01.667Z,20.90
2022-12-04T03:24:00.779Z,21.30
2022-12-04T03:25:00.696Z,21.20
2022-12-04T03:26:01.002Z,21.70
2022-12-04T03:27:00.191Z,21.10
2022-12-04T03:28:01.192Z,20.10
2022-12-04T03:29:00.190Z,21.30
2022-12-04T03:30:00.302Z,20.70
2022-12-04T03:31:00.479Z,21.00
2022-12-04T03:32:00.153Z,20.40
2022-12-04T03:33:00.163Z,20.90
2022-12-04T03:34:00.160Z,21.10
2022-12-04T03:35:00.154Z,21.30
2022-12-04T03:36:01.156Z,22.30
2022-12-04T03:37:00.372Z,20.80
2022-12-04T03:38:01.128Z,22.50
2022-12-04T03:39:00.742Z,22.10
2022-12-04T03:40:00.148Z,21.30
2022-12-04T03:41:00.337Z,22.00
2022-12-04T03:42:01.007Z,22.00
2022-12-04T03:43:00.153Z,21.20
2022-12-04T03:44:00.360Z,21.10
2022-12-04T03:45:00.723Z,22.10
2022-12-04T03:46:00.181Z,21.60
2022-12-04T03:47:00.309Z,21.80
2022-12-04T03:48:00.341Z,22.50
2022-12-04T03:49:00.101Z,21.90
2022-12-04T03:50:00.040Z,22.30
2022-12-04T03:51:00.036Z,22.50
2022-12-04T03:52:00.259Z,22.10
2022-12-04T03:53:00.035Z,22.70
2022-12-04T03:54:00.073Z,22.20
2022-12-04T03:55:00.147Z,22.20
2022-12-04T03:56:00.135Z,21.80
2022-12-04T03:57:00.416Z,22.50
2022-12-04T03:58:00.700Z,23.20
2022-12-04T03:59:00.015Z,22.90
2022-12-04T04:00:00.625Z,22.10
2022-12-04T04:01:00.163Z,21.90
2022-12-04T04:02:00.457Z,24.10
2022-12-04T04:03:00.058Z,22.30
2022-12-04T04:04:00.962Z,23.90
2022-12-04T04:05:00.060Z,21.70
2022-12-04T04:05:59.991Z,24.10
2022-12-04T04:07:00.001Z,22.70
2022-12-04T04:08:01.550Z,23.70
2022-12-04T04:08:59.926Z,22.70
2022-12-04T04:10:00.148Z,22.80
2022-12-04T04:10:59.920Z,22.60
2022-12-04T04:12:00.660Z,23.70
2022-12-04T04:13:00.031Z,23.10
2022-12-04T04:14:00.051Z,23.10
2022-12-04T04:15:00.015Z,23.80
2022-12-04T04:15:59.951Z,23.70
2022-12-04T04:16:59.888Z,23.40
2022-12-04T04:18:01.201Z,24.20
2022-12-04T04:19:00.249Z,23.80
2022-12-04T04:20:00.304Z,23.70
2022-12-04T04:20:59.957Z,24.70
2022-12-04T04:22:01.159Z,23.50
2022-12-04T04:22:59.843Z,24.10
2022-12-04T04:23:59.809Z,24.10
2022-12-04T04:25:00.718Z,24.10
2022-12-04T04:25:59.853Z,24.10
2022-12-04T04:26:59.913Z,24.10
2022-12-04T04:28:00.698Z,24.60
2022-12-04T04:28:59.843Z,24.90
2022-12-04T04:29:59.985Z,25.50
2022-12-04T04:30:59.831Z,25.40
2022-12-04T04:32:01.019Z,25.10
2022-12-04T04:33:01.048Z,26.30
2022-12-04T04:33:59.872Z,25.60
2022-12-04T04:35:00.254Z,24.60
2022-12-04T04:36:00.063Z,26.10
2022-12-04T04:37:00.096Z,25.60
2022-12-04T04:37:59.779Z,25.70
2022-12-04T04:38:59.880Z,25.80
2022-12-04T04:40:00.520Z,24.90
2022-12-04T04:40:59.704Z,27.20
2022-12-04T04:41:59.703Z,25.60
2022-12-04T04:42:59.710Z,26.80
2022-12-04T04:43:59.735Z,26.00
2022-12-04T04:44:59.764Z,26.40
2022-12-04T04:46:00.161Z,25.60
2022-12-04T04:46:59.664Z,26.30
2022-12-04T04:47:59.647Z,25.60
2022-12-04T04:48:59.867Z,25.70
2022-12-04T04:50:00.559Z,26.40
2022-12-04T04:50:59.725Z,25.00
2022-12-04T04:52:00.260Z,25.10
2022-12-04T04:52:59.620Z,25.10
2022-12-04T04:53:59.607Z,25.80
2022-12-04T04:54:59.655Z,26.70
2022-12-04T04:56:00.094Z,25.60
2022-12-04T04:56:59.632Z,26.50
2022-12-04T04:57:59.576Z,25.50
2022-12-04T04:58:59.566Z,25.40
2022-12-04T04:59:59.635Z,25.30
2022-12-04T05:00:59.594Z,26.20
2022-12-04T05:01:59.639Z,25.70
2022-12-04T05:02:59.627Z,26.40
2022-12-04T05:03:59.536Z,25.00
2022-12-04T05:04:59.547Z,26.50
2022-12-04T05:05:59.626Z,25.90
2022-12-04T05:06:59.506Z,25.60
2022-12-04T05:07:59.642Z,25.20
2022-12-04T05:08:59.497Z,25.20
2022-12-04T05:09:59.701Z,25.80
2022-12-04T05:10:59.497Z,26.10
2022-12-04T05:11:59.497Z,24.50
2022-12-04T05:12:59.466Z,25.10
2022-12-04T05:13:59.497Z,25.90
2022-12-04T05:14:59.495Z,24.40
2022-12-04T05:15:59.578Z,25.50
2022-12-04T05:17:01.919Z,27.00
2022-12-04T05:17:59.456Z,24.90
2022-12-04T05:18:59.470Z,23.80
2022-12-04T05:19:59.796Z,24.70
2022-12-04T05:20:59.447Z,26.80
2022-12-04T05:21:59.433Z,24.20
2022-12-04T05:22:59.426Z,25.10
2022-12-04T05:23:59.413Z,25.00
2022-12-04T05:24:59.440Z,24.00
2022-12-04T05:25:59.382Z,23.70
2022-12-04T05:26:59.435Z,25.30
2022-12-04T05:27:59.534Z,25.20
2022-12-04T05:28:59.449Z,24.50
2022-12-04T05:29:59.628Z,23.80
2022-12-04T05:30:59.589Z,24.40
2022-12-04T05:31:59.379Z,24.50
2022-12-04T05:32:59.350Z,24.60
2022-12-04T05:33:59.428Z,25.00
2022-12-04T05:34:59.328Z,25.40
2022-12-04T05:35:59.362Z,23.70
2022-12-04T05:36:59.312Z,23.60
2022-12-04T05:37:59.342Z,24.30
2022-12-04T05:38:59.337Z,25.10
2022-12-04T05:39:59.473Z,24.30
2022-12-04T05:41:00.178Z,23.60
2022-12-04T05:41:59.293Z,23.50
2022-12-04T05:42:59.355Z,23.60
2022-12-04T05:43:59.570Z,24.20
2022-12-04T05:44:59.793Z,23.30
2022-12-04T05:45:59.750Z,23.50
2022-12-04T05:46:59.372Z,23.80
2022-12-04T05:47:59.246Z,24.20
2022-12-04T05:48:59.241Z,23.80
2022-12-04T05:49:59.415Z,22.70
2022-12-04T05:50:59.231Z,24.10
2022-12-04T05:51:59.607Z,23.50
2022-12-04T05:52:59.297Z,22.70
2022-12-04T05:53:59.338Z,23.90
2022-12-04T05:54:59.716Z,23.50
2022-12-04T05:55:59.248Z,24.10
2022-12-04T05:56:59.261Z,24.40
2022-12-04T05:57:59.237Z,22.30
2022-12-04T05:58:59.196Z,23.60
2022-12-04T05:59:59.394Z,22.10
2022-12-04T06:00:59.893Z,21.90
2022-12-04T06:01:59.240Z,22.60
2022-12-04T06:02:59.248Z,22.70
2022-12-04T06:03:59.149Z,24.30
2022-12-04T06:05:00.047Z,24.80
2022-12-04T06:06:00.051Z,24.10
2022-12-04T06:06:59.184Z,23.20
2022-12-04T06:07:59.248Z,21.80
2022-12-04T06:08:59.733Z,25.20
2022-12-04T06:09:59.173Z,23.60
2022-12-04T06:10:59.497Z,23.50
2022-12-04T06:11:59.495Z,23.20
2022-12-04T06:12:59.092Z,23.60
2022-12-04T06:13:59.095Z,23.40
2022-12-04T06:14:59.101Z,23.30
2022-12-04T06:15:59.258Z,22.90
2022-12-04T06:16:59.094Z,23.00
2022-12-04T06:17:59.046Z,23.20
2022-12-04T06:18:59.101Z,23.70
2022-12-04T06:19:59.440Z,23.10
2022-12-04T06:20:59.042Z,23.40
2022-12-04T06:21:59.056Z,23.10
2022-12-04T06:22:58.996Z,22.30
2022-12-04T06:23:58.985Z,23.30
2022-12-04T06:24:58.977Z,22.30
2022-12-04T06:26:05.251Z,22.90
2022-12-04T06:27:28.736Z,23.20
2022-12-04T06:28:00.009Z,23.60
2022-12-04T06:28:58.965Z,22.40
2022-12-04T06:29:59.191Z,22.70
2022-12-04T06:30:58.937Z,23.00
2022-12-04T06:31:59.007Z,22.90
2022-12-04T06:32:58.938Z,24.00
2022-12-04T06:33:58.924Z,23.20
2022-12-04T06:34:58.915Z,22.30
2022-12-04T06:35:58.912Z,22.70
2022-12-04T06:36:58.910Z,22.00
2022-12-04T06:37:58.912Z,22.70
2022-12-04T06:38:58.910Z,22.60
2022-12-04T06:39:59.249Z,22.10
2022-12-04T06:40:58.876Z,22.60
2022-12-04T06:41:58.873Z,22.20
2022-12-04T06:42:58.860Z,23.00
2022-12-04T06:43:58.857Z,22.20
2022-12-04T06:44:58.869Z,22.80
2022-12-04T06:45:58.859Z,22.70
2022-12-04T06:47:00.960Z,22.10
2022-12-04T06:47:58.841Z,22.40
2022-12-04T06:48:58.816Z,21.70
2022-12-04T06:49:59.087Z,21.00
2022-12-04T06:50:58.827Z,22.80
2022-12-04T06:51:58.801Z,21.80
2022-12-04T06:53:02.283Z,21.40
2022-12-04T06:53:58.803Z,22.40
2022-12-04T06:54:58.790Z,22.70
2022-12-04T06:55:58.784Z,21.50
2022-12-04T06:56:58.764Z,22.60
2022-12-04T06:57:58.764Z,21.30
2022-12-04T06:58:58.751Z,21.20
2022-12-04T06:59:58.851Z,21.30
2022-12-04T07:00:58.794Z,21.60
2022-12-04T07:01:58.801Z,21.00
2022-12-04T07:02:58.738Z,22.90
2022-12-04T07:03:58.745Z,21.40
2022-12-04T07:04:58.735Z,21.10
2022-12-04T07:05:58.706Z,21.40
2022-12-04T07:06:58.699Z,20.10
2022-12-04T07:07:58.746Z,20.10
2022-12-04T07:09:05.717Z,20.30
2022-12-04T07:09:58.835Z,21.20
2022-12-04T07:10:59.407Z,22.10
2022-12-04T07:11:58.681Z,21.00
2022-12-04T07:12:58.675Z,20.80
2022-12-04T07:13:58.676Z,21.50
2022-12-04T07:14:58.649Z,20.70
2022-12-04T07:15:58.668Z,20.60
2022-12-04T07:16:58.718Z,20.70
2022-12-04T07:17:58.639Z,20.80
2022-12-04T07:18:58.624Z,19.90
2022-12-04T07:19:58.922Z,21.10
2022-12-04T07:20:58.606Z,20.60
2022-12-04T07:21:58.612Z,20.90
2022-12-04T07:23:02.701Z,20.80
2022-12-04T07:23:59.604Z,20.90
2022-12-04T07:24:58.595Z,21.70
2022-12-04T07:25:58.591Z,22.30
2022-12-04T07:26:58.580Z,19.80
2022-12-04T07:27:58.576Z,21.00
2022-12-04T07:28:58.561Z,20.70
2022-12-04T07:29:58.653Z,20.20
2022-12-04T07:30:58.550Z,20.90
2022-12-04T07:31:58.613Z,20.20
2022-12-04T07:32:58.547Z,19.90
2022-12-04T07:33:58.528Z,21.80
2022-12-04T07:34:58.507Z,21.80
2022-12-04T07:35:58.510Z,21.00
2022-12-04T07:36:58.494Z,21.10
2022-12-04T07:37:58.504Z,20.20
2022-12-04T07:38:58.514Z,21.30
2022-12-04T07:39:58.673Z,20.80
2022-12-04T07:40:58.471Z,21.50
2022-12-04T07:41:58.484Z,21.10
2022-12-04T07:42:58.471Z,21.60
2022-12-04T07:43:58.459Z,21.50
2022-12-04T07:44:58.477Z,20.60
2022-12-04T07:45:58.485Z,21.40
2022-12-04T07:46:58.456Z,20.00
2022-12-04T07:47:58.427Z,21.20
2022-12-04T07:48:58.444Z,20.50
2022-12-04T07:49:58.596Z,20.80
2022-12-04T07:50:58.401Z,20.90
2022-12-04T07:51:58.389Z,20.70
2022-12-04T07:52:58.406Z,20.60
2022-12-04T07:54:02.629Z,20.70
2022-12-04T07:54:58.384Z,21.20
2022-12-04T07:55:58.369Z,21.40
2022-12-04T07:56:58.374Z,21.10
2022-12-04T07:57:58.374Z,19.90
2022-12-04T07:58:58.358Z,19.70
2022-12-04T07:59:58.474Z,20.40
2022-12-04T08:00:58.377Z,21.70
2022-12-04T08:01:58.397Z,21.20
2022-12-04T08:02:58.345Z,19.10
2022-12-04T08:03:58.422Z,20.80
2022-12-04T08:04:58.320Z,20.90
2022-12-04T08:05:58.309Z,20.00
2022-12-04T08:06:58.314Z,21.10
2022-12-04T08:07:58.389Z,20.80
2022-12-04T08:08:58.289Z,21.50
2022-12-04T08:09:58.386Z,20.60
2022-12-04T08:10:58.277Z,20.80
2022-12-04T08:11:58.288Z,20.80
2022-12-04T08:12:58.253Z,21.20
2022-12-04T08:13:58.280Z,20.90
2022-12-04T08:14:58.253Z,21.10
2022-12-04T08:15:58.234Z,21.10
2022-12-04T08:16:58.301Z,21.10
2022-12-04T08:17:58.228Z,21.40
2022-12-04T08:18:58.257Z,20.90
2022-12-04T08:19:58.528Z,20.90
2022-12-04T08:20:58.220Z,20.80
2022-12-04T08:21:58.206Z,21.80
2022-12-04T08:22:58.196Z,21.40
2022-12-04T08:23:58.215Z,20.60
2022-12-04T08:24:58.196Z,21.70
2022-12-04T08:25:58.178Z,20.50
2022-12-04T08:26:58.160Z,21.20
2022-12-04T08:27:58.159Z,20.30
2022-12-04T08:28:58.155Z,20.20
2022-12-04T08:29:58.469Z,21.60
2022-12-04T08:30:58.206Z,21.40
2022-12-04T08:31:58.134Z,20.40
2022-12-04T08:32:58.116Z,21.20
2022-12-04T08:33:58.112Z,21.50
2022-12-04T08:34:58.133Z,21.30
2022-12-04T08:35:58.104Z,21.70
2022-12-04T08:36:58.124Z,21.40
2022-12-04T08:37:58.100Z,21.90
2022-12-04T08:38:58.135Z,21.50
2022-12-04T08:39:58.359Z,20.80
2022-12-04T08:40:58.063Z,20.60
2022-12-04T08:41:58.063Z,22.50
2022-12-04T08:42:58.070Z,22.80
2022-12-04T08:43:58.142Z,21.70
2022-12-04T08:44:58.042Z,21.30
2022-12-04T08:45:58.094Z,21.90
2022-12-04T08:46:58.034Z,21.70
2022-12-04T08:47:58.024Z,22.50
2022-12-04T08:48:58.035Z,21.90
2022-12-04T08:49:58.304Z,22.80
2022-12-04T08:50:58.010Z,21.50
2022-12-04T08:51:58.005Z,22.80
2022-12-04T08:52:57.987Z,22.30
2022-12-04T08:53:57.980Z,21.80
2022-12-04T08:54:57.994Z,23.50
2022-12-04T08:55:57.992Z,21.90
2022-12-04T08:56:57.965Z,22.40
2022-12-04T08:57:57.955Z,21.80
2022-12-04T08:58:57.942Z,22.20
2022-12-04T08:59:58.325Z,21.10
2022-12-04T09:00:58.012Z,21.50
2022-12-04T09:01:58.082Z,21.50
2022-12-04T09:02:57.940Z,22.20
2022-12-04T09:03:57.998Z,21.80
2022-12-04T09:04:58.012Z,21.90
2022-12-04T09:05:57.908Z,21.90
2022-12-04T09:06:57.898Z,23.10
2022-12-04T09:07:57.928Z,21.40
2022-12-04T09:08:57.896Z,20.90
2022-12-04T09:09:58.254Z,21.90
2022-12-04T09:10:57.872Z,20.90
2022-12-04T09:11:57.905Z,22.50
2022-12-04T09:12:57.869Z,21.30
2022-12-04T09:13:57.859Z,22.00
2022-12-04T09:14:57.883Z,21.20
2022-12-04T09:15:57.918Z,22.00
2022-12-04T09:16:57.826Z,21.80
2022-12-04T09:17:57.822Z,21.80
2022-12-04T09:18:57.839Z,22.50
2022-12-04T09:20:00.909Z,21.90
2022-12-04T09:20:57.801Z,21.40
2022-12-04T09:21:57.793Z,21.50
2022-12-04T09:23:05.032Z,20.90
2022-12-04T09:23:58.840Z,21.60
2022-12-04T09:24:57.771Z,20.80
2022-12-04T09:25:57.814Z,22.10
2022-12-04T09:26:57.803Z,21.30
2022-12-04T09:27:57.758Z,20.80
2022-12-04T09:28:57.754Z,21.00
2022-12-04T09:29:58.102Z,21.80
2022-12-04T09:30:57.789Z,21.00
2022-12-04T09:31:57.756Z,22.40
2022-12-04T09:32:57.713Z,21.80
2022-12-04T09:33:57.715Z,21.70
2022-12-04T09:34:57.707Z,22.40
2022-12-04T09:35:57.692Z,21.90
2022-12-04T09:36:57.721Z,21.50
2022-12-04T09:37:57.717Z,21.50
2022-12-04T09:38:57.682Z,21.50
2022-12-04T09:39:57.898Z,22.70
2022-12-04T09:40:57.660Z,21.20
2022-12-04T09:41:57.676Z,22.10
2022-12-04T09:42:57.649Z,22.80
2022-12-04T09:43:57.635Z,20.90
2022-12-04T09:44:57.636Z,21.40
2022-12-04T09:45:57.660Z,22.40
2022-12-04T09:46:57.680Z,22.10
2022-12-04T09:47:57.642Z,22.40
2022-12-04T09:48:57.626Z,21.80
2022-12-04T09:49:57.970Z,21.90
2022-12-04T09:50:57.584Z,22.10
2022-12-04T09:51:57.581Z,21.90
2022-12-04T09:52:57.586Z,21.60
2022-12-04T09:53:57.559Z,22.30
2022-12-04T09:54:57.555Z,21.40
2022-12-04T09:55:57.576Z,23.30
2022-12-04T09:56:57.573Z,22.60
2022-12-04T09:58:01.752Z,21.90
2022-12-04T09:58:57.525Z,22.20
2022-12-04T09:59:57.943Z,20.90
2022-12-04T10:00:57.532Z,21.30
2022-12-04T10:01:57.522Z,20.80
2022-12-04T10:02:57.676Z,22.90
2022-12-04T10:04:02.635Z,21.80
2022-12-04T10:04:57.510Z,22.80
2022-12-04T10:05:57.481Z,21.40
2022-12-04T10:06:57.468Z,22.50
2022-12-04T10:07:57.502Z,22.20
2022-12-04T10:08:57.455Z,22.10
2022-12-04T10:09:57.651Z,23.10
2022-12-04T10:10:57.502Z,23.10
2022-12-04T10:11:57.471Z,21.20
2022-12-04T10:12:57.466Z,21.50
2022-12-04T10:13:57.471Z,22.00
2022-12-04T10:14:57.417Z,21.60
2022-12-04T10:15:57.463Z,22.40
2022-12-04T10:16:57.420Z,22.30
2022-12-04T10:17:57.411Z,22.10
2022-12-04T10:18:57.409Z,22.90
2022-12-04T10:19:57.745Z,22.40
2022-12-04T10:20:57.397Z,21.60
2022-12-04T10:21:57.376Z,22.00
2022-12-04T10:22:57.412Z,21.50
2022-12-04T10:23:57.371Z,21.90
2022-12-04T10:24:57.387Z,20.40
2022-12-04T10:25:57.342Z,21.30
2022-12-04T10:26:57.375Z,21.60
2022-12-04T10:27:57.341Z,21.50
2022-12-04T10:28:57.324Z,21.80
2022-12-04T10:29:57.784Z,22.00
2022-12-04T10:30:57.316Z,21.00
2022-12-04T10:31:57.335Z,21.10
2022-12-04T10:32:57.307Z,21.20
2022-12-04T10:33:57.307Z,21.30
2022-12-04T10:34:57.309Z,21.70
2022-12-04T10:35:57.310Z,21.20
2022-12-04T10:36:57.284Z,20.80
2022-12-04T10:37:57.291Z,21.20
2022-12-04T10:38:57.281Z,20.90
2022-12-04T10:39:57.572Z,21.50
2022-12-04T10:40:57.248Z,21.00
2022-12-04T10:41:57.264Z,21.60
2022-12-04T10:42:57.245Z,21.30
2022-12-04T10:43:57.259Z,22.00
2022-12-04T10:44:57.233Z,21.00
2022-12-04T10:45:57.208Z,20.80
2022-12-04T10:46:57.384Z,21.00
2022-12-04T10:47:57.221Z,22.70
2022-12-04T10:48:57.197Z,22.50
2022-12-04T10:49:57.483Z,21.10
2022-12-04T10:50:57.210Z,21.20
2022-12-04T10:51:57.183Z,21.30
2022-12-04T10:52:57.185Z,21.10
2022-12-04T10:53:57.164Z,21.10
2022-12-04T10:54:57.149Z,21.10
2022-12-04T10:55:57.182Z,20.10
2022-12-04T10:56:57.312Z,21.50
2022-12-04T10:57:57.133Z,21.70
2022-12-04T10:58:57.180Z,21.00
2022-12-04T10:59:57.573Z,20.70
2022-12-04T11:00:57.130Z,21.40
2022-12-04T11:02:01.572Z,20.80
2022-12-04T11:02:57.212Z,20.70
2022-12-04T11:03:57.092Z,20.00
2022-12-04T11:04:57.119Z,20.00
2022-12-04T11:05:57.145Z,20.20
2022-12-04T11:06:57.170Z,20.90
2022-12-04T11:07:57.115Z,19.90
2022-12-04T11:08:57.109Z,20.40
2022-12-04T11:09:57.428Z,20.00
2022-12-04T11:10:57.044Z,21.00
2022-12-04T11:11:57.133Z,20.30
2022-12-04T11:12:57.040Z,19.60
2022-12-04T11:13:57.064Z,20.00
2022-12-04T11:14:57.053Z,20.00
2022-12-04T11:15:57.092Z,19.50
2022-12-04T11:16:57.034Z,20.20
2022-12-04T11:17:57.024Z,20.10
2022-12-04T11:18:57.001Z,20.70
2022-12-04T11:19:57.260Z,21.10
2022-12-04T11:20:56.988Z,19.90
2022-12-04T11:21:57.021Z,19.30
2022-12-04T11:22:56.988Z,19.60
2022-12-04T11:23:56.983Z,19.80
2022-12-04T11:24:56.978Z,19.50
2022-12-04T11:26:02.121Z,20.00
2022-12-04T11:26:58.023Z,18.70
2022-12-04T11:27:57.055Z,19.80
2022-12-04T11:28:56.944Z,20.30
2022-12-04T11:29:57.438Z,20.10
2022-12-04T11:30:56.997Z,19.60
2022-12-04T11:31:59.350Z,19.50
2022-12-04T11:32:56.966Z,20.40
2022-12-04T11:33:56.934Z,19.30
2022-12-04T11:34:56.918Z,19.00
2022-12-04T11:35:56.946Z,18.90
2022-12-04T11:36:56.918Z,19.50
2022-12-04T11:37:56.910Z,18.50
2022-12-04T11:38:56.953Z,19.50
2022-12-04T11:39:57.158Z,20.30
2022-12-04T11:40:56.893Z,19.90
2022-12-04T11:41:57.010Z,19.70
2022-12-04T11:42:56.990Z,18.90
2022-12-04T11:44:00.241Z,19.70
2022-12-04T11:44:56.847Z,19.70
2022-12-04T11:45:56.891Z,19.40
2022-12-04T11:46:56.999Z,19.80
2022-12-04T11:47:56.840Z,19.90
2022-12-04T11:48:56.813Z,18.70
2022-12-04T11:49:57.158Z,19.60
2022-12-04T11:50:56.802Z,18.90
2022-12-04T11:51:56.787Z,20.00
2022-12-04T11:52:56.810Z,19.60
2022-12-04T11:53:56.775Z,20.00
2022-12-04T11:54:56.782Z,20.60
2022-12-04T11:55:56.787Z,20.00
2022-12-04T11:56:56.770Z,19.60
2022-12-04T11:57:56.764Z,19.90
2022-12-04T11:58:56.726Z,21.10
2022-12-04T11:59:57.097Z,20.00
2022-12-04T12:00:56.747Z,19.90
2022-12-04T12:01:58.685Z,20.30
2022-12-04T12:02:56.888Z,20.10
2022-12-04T12:03:56.716Z,19.70
2022-12-04T12:04:56.685Z,20.20
2022-12-04T12:05:56.685Z,19.30
2022-12-04T12:06:56.677Z,19.70
2022-12-04T12:08:02.583Z,20.40
2022-12-04T12:08:57.664Z,20.90
2022-12-04T12:09:57.084Z,19.60
2022-12-04T12:10:56.656Z,20.50
2022-12-04T12:11:56.677Z,20.30
2022-12-04T12:12:56.652Z,21.50
2022-12-04T12:13:56.697Z,20.80
2022-12-04T12:14:56.799Z,19.60
2022-12-04T12:15:56.621Z,20.70
2022-12-04T12:16:56.629Z,20.80
2022-12-04T12:17:56.623Z,20.40
2022-12-04T12:18:56.617Z,20.80
2022-12-04T12:19:56.798Z,20.20
2022-12-04T12:20:56.603Z,21.20
2022-12-04T12:21:58.007Z,20.30
2022-12-04T12:22:56.580Z,21.80
2022-12-04T12:23:56.568Z,20.60
2022-12-04T12:24:56.907Z,21.30
2022-12-04T12:25:56.594Z,20.50
2022-12-04T12:26:56.545Z,21.20
2022-12-04T12:27:56.565Z,20.60
2022-12-04T12:28:56.577Z,21.10
2022-12-04T12:29:56.813Z,21.50
2022-12-04T12:31:01.063Z,22.10
2022-12-04T12:31:57.623Z,20.50
2022-12-04T12:32:56.508Z,22.00
2022-12-04T12:33:56.508Z,20.90
2022-12-04T12:34:56.534Z,21.10
2022-12-04T12:35:56.540Z,21.80
2022-12-04T12:37:00.731Z,20.90
2022-12-04T12:37:56.487Z,21.30
2022-12-04T12:38:56.471Z,20.90
2022-12-04T12:39:56.613Z,21.10
2022-12-04T12:40:56.485Z,20.70
2022-12-04T12:41:56.448Z,21.20
2022-12-04T12:42:58.508Z,21.50
2022-12-04T12:43:56.471Z,21.00
2022-12-04T12:44:56.432Z,20.60
2022-12-04T12:45:56.456Z,20.00
2022-12-04T12:46:56.405Z,21.50
2022-12-04T12:47:56.399Z,21.80
2022-12-04T12:48:58.537Z,20.80
2022-12-04T12:49:56.678Z,20.70
2022-12-04T12:51:14.979Z,20.70
2022-12-04T12:51:57.389Z,21.00
2022-12-04T12:52:56.384Z,22.00